Time;durP1;ratioP1;P1;durP2;ratioP2;P2;SDS_P1;SDS_P2;PMS_P1;PMS_P2;Temp;Humidity;BMP_temperature;BMP_pressure;BME280_temperature;BME280_humidity;BME280_pressure;Samples;Min_cycle;Max_cycle;Signal;HPM_P1;HPM_P2
2024/01/06 00:01:01;;;;;;;21.05;11.60;;;2.70;65.00;;;;;;5029767;28;20045;-70
2024/01/06 00:03:27;;;;;;;22.88;12.48;;;2.40;65.10;;;;;;5028635;28;20045;-72
2024/01/06 00:05:52;;;;;;;21.85;11.98;;;2.10;64.80;;;;;;5036121;28;20596;-69
2024/01/06 00:08:18;;;;;;;25.88;12.85;;;2.60;64.70;;;;;;5027500;28;20029;-70
2024/01/06 00:10:44;;;;;;;25.25;12.93;;;2.30;64.40;;;;;;5012381;28;20064;-70
2024/01/06 00:13:10;;;;;;;23.50;12.23;;;2.30;64.00;;;;;;5025498;28;20084;-71
2024/01/06 00:15:36;;;;;;;24.52;12.85;;;2.60;64.00;;;;;;5027676;28;20065;-70
2024/01/06 00:18:02;;;;;;;28.17;14.85;;;2.20;63.20;;;;;;5028866;28;20463;-70
2024/01/06 00:20:27;;;;;;;29.33;15.68;;;2.40;63.30;;;;;;5046300;28;20088;-70
2024/01/06 00:22:53;;;;;;;31.02;14.75;;;2.10;63.00;;;;;;5019606;28;20039;-70
2024/01/06 00:25:18;;;;;;;28.27;14.25;;;2.10;62.80;;;;;;5041025;28;20094;-71
2024/01/06 00:27:44;;;;;;;28.98;14.40;;;2.60;62.90;;;;;;5033794;28;20095;-70
2024/01/06 00:30:10;;;;;;;27.08;13.70;;;2.20;62.80;;;;;;5029167;28;20133;-70
2024/01/06 00:32:36;;;;;;;25.45;13.52;;;2.70;63.10;;;;;;5042631;28;20048;-69
2024/01/06 00:35:02;;;;;;;28.38;14.32;;;2.30;62.50;;;;;;5036666;28;20496;-70
2024/01/06 00:37:27;;;;;;;31.75;14.50;;;2.50;62.50;;;;;;5033282;28;20046;-69
2024/01/06 00:39:53;;;;;;;32.28;14.98;;;2.40;62.20;;;;;;5045857;28;20044;-70
2024/01/06 00:42:18;;;;;;;31.40;15.38;;;2.50;62.10;;;;;;5034398;28;20506;-71
2024/01/06 00:44:45;;;;;;;30.45;15.02;;;2.10;61.70;;;;;;5035067;28;20041;-69
2024/01/06 00:47:11;;;;;;;28.05;13.77;;;2.00;61.60;;;;;;5040900;28;20045;-69
2024/01/06 00:49:36;;;;;;;27.02;14.13;;;2.00;61.70;;;;;;5041498;28;20041;-69
2024/01/06 00:52:02;;;;;;;31.00;14.75;;;2.00;61.90;;;;;;5032882;28;20048;-69
2024/01/06 00:54:28;;;;;;;26.15;13.05;;;2.00;62.00;;;;;;5053113;28;20502;-69
2024/01/06 00:56:54;;;;;;;28.42;14.23;;;2.50;62.20;;;;;;5038661;28;20610;-70
2024/01/06 00:59:19;;;;;;;24.17;13.35;;;2.40;61.60;;;;;;5042016;28;20040;-71
2024/01/06 01:01:45;;;;;;;27.60;13.50;;;1.90;61.20;;;;;;5023570;28;20045;-71
2024/01/06 01:04:10;;;;;;;23.40;12.80;;;2.40;60.90;;;;;;5020578;28;20595;-69
2024/01/06 01:06:39;;;;;;;28.48;13.68;;;2.00;60.50;;;;;;5036187;28;20064;-69
2024/01/06 01:09:05;;;;;;;24.17;12.15;;;2.40;60.30;;;;;;5034758;28;20099;-69
2024/01/06 01:11:30;;;;;;;27.90;14.00;;;2.20;60.10;;;;;;5030801;28;20473;-67
2024/01/06 01:13:56;;;;;;;23.88;13.02;;;2.00;60.00;;;;;;5028518;28;20046;-69
2024/01/06 01:16:22;;;;;;;28.20;12.98;;;2.20;59.90;;;;;;5029613;28;20060;-69
2024/01/06 01:18:47;;;;;;;26.55;13.23;;;2.10;59.70;;;;;;5032982;28;20045;-71
2024/01/06 01:21:14;;;;;;;23.67;12.57;;;1.90;59.40;;;;;;5028208;28;20045;-70
2024/01/06 01:23:39;;;;;;;29.25;13.82;;;2.20;59.30;;;;;;5030532;28;20042;-69
2024/01/06 01:26:05;;;;;;;27.05;12.65;;;1.90;58.60;;;;;;5030095;28;20039;-70
2024/01/06 01:28:31;;;;;;;27.83;14.00;;;2.10;58.60;;;;;;5030127;28;20045;-68
2024/01/06 01:30:56;;;;;;;26.73;13.80;;;2.30;58.30;;;;;;5033832;28;20134;-68
2024/01/06 01:33:24;;;;;;;30.15;14.10;;;2.10;58.50;;;;;;5042906;28;20112;-69
2024/01/06 01:35:49;;;;;;;27.77;13.95;;;1.80;58.20;;;;;;5029902;28;20128;-69
2024/01/06 01:38:15;;;;;;;27.67;12.75;;;1.90;58.70;;;;;;5027928;28;20434;-67
2024/01/06 01:40:40;;;;;;;25.05;13.45;;;1.90;58.80;;;;;;5030007;28;20037;-68
2024/01/06 01:43:15;;;;;;;27.23;12.95;;;2.30;59.10;;;;;;5029012;28;20389;-68
2024/01/06 01:45:40;;;;;;;28.85;13.02;;;2.30;58.90;;;;;;5033466;28;20359;-68
2024/01/06 01:48:06;;;;;;;25.02;12.95;;;2.20;58.50;;;;;;5041007;28;20041;-69
2024/01/06 01:50:32;;;;;;;26.92;13.82;;;1.90;58.00;;;;;;5029774;28;20427;-67
2024/01/06 01:52:59;;;;;;;28.00;13.10;;;2.00;58.20;;;;;;5028421;28;20060;-67
2024/01/06 01:55:24;;;;;;;26.55;12.43;;;1.80;58.20;;;;;;5029695;28;20052;-68
2024/01/06 01:57:50;;;;;;;24.15;12.40;;;2.10;58.40;;;;;;5029109;28;20041;-67
2024/01/06 02:00:16;;;;;;;25.27;12.63;;;1.90;58.30;;;;;;5030276;28;20152;-69
2024/01/06 02:02:42;;;;;;;26.58;12.55;;;2.10;58.30;;;;;;5031462;28;20385;-68
2024/01/06 02:05:07;;;;;;;21.08;10.98;;;1.80;58.10;;;;;;5028636;28;20029;-68
2024/01/06 02:07:33;;;;;;;21.77;11.25;;;1.90;58.00;;;;;;5025481;28;20033;-71
2024/01/06 02:09:59;;;;;;;18.15;9.60;;;2.10;57.70;;;;;;5030170;28;20037;-70
2024/01/06 02:12:24;;;;;;;19.48;9.20;;;2.20;57.70;;;;;;5027275;28;20036;-69
2024/01/06 02:14:50;;;;;;;16.58;9.57;;;1.90;57.80;;;;;;5028353;28;20120;-69
2024/01/06 02:17:15;;;;;;;15.90;9.18;;;1.90;57.80;;;;;;5032000;28;20167;-67
2024/01/06 02:19:41;;;;;;;17.42;9.75;;;2.10;58.20;;;;;;5030525;28;20500;-69
2024/01/06 02:22:07;;;;;;;19.10;9.60;;;2.00;58.20;;;;;;5025466;28;20037;-69
2024/01/06 02:24:32;;;;;;;24.63;11.70;;;1.90;58.40;;;;;;5028335;28;20033;-68
2024/01/06 02:26:58;;;;;;;23.05;11.43;;;2.00;58.40;;;;;;5034382;28;20037;-68
2024/01/06 02:29:23;;;;;;;21.63;11.70;;;1.80;58.40;;;;;;5024785;28;20041;-69
2024/01/06 02:31:49;;;;;;;23.20;11.25;;;1.80;58.70;;;;;;5010496;28;20132;-68
2024/01/06 02:34:15;;;;;;;21.48;10.48;;;1.70;59.10;;;;;;5030000;28;20048;-66
2024/01/06 02:36:40;;;;;;;23.08;12.18;;;2.00;59.70;;;;;;5030472;28;20084;-68
2024/01/06 02:39:06;;;;;;;24.63;12.07;;;1.80;59.80;;;;;;5036675;28;20036;-68
2024/01/06 02:41:32;;;;;;;23.80;12.70;;;2.00;60.10;;;;;;5015139;28;20596;-69
2024/01/06 02:43:58;;;;;;;27.27;12.80;;;1.70;60.10;;;;;;5015073;28;20045;-68
2024/01/06 02:46:23;;;;;;;25.70;13.05;;;1.70;60.70;;;;;;5030020;28;20053;-68
2024/01/06 02:48:49;;;;;;;28.40;13.43;;;1.90;61.20;;;;;;5036031;28;20124;-68
2024/01/06 02:51:15;;;;;;;28.10;13.85;;;1.60;61.30;;;;;;5029058;28;20085;-69
2024/01/06 02:53:40;;;;;;;24.30;13.30;;;1.90;61.70;;;;;;5035394;28;20449;-70
2024/01/06 02:56:12;;;;;;;29.50;13.05;;;1.60;62.20;;;;;;5038611;28;20827;-68
2024/01/06 02:58:39;;;;;;;25.17;12.20;;;1.80;62.50;;;;;;5043255;28;20167;-68
2024/01/06 03:01:04;;;;;;;30.38;13.85;;;1.90;62.60;;;;;;5033068;28;20057;-68
2024/01/06 03:03:30;;;;;;;25.30;12.50;;;1.90;62.50;;;;;;5044553;28;20104;-66
2024/01/06 03:05:56;;;;;;;24.58;12.23;;;1.80;62.90;;;;;;5025002;28;20401;-68
2024/01/06 03:08:22;;;;;;;26.17;13.25;;;1.80;62.80;;;;;;5034955;28;20045;-68
2024/01/06 03:10:48;;;;;;;26.45;12.32;;;1.80;62.70;;;;;;5039906;28;20037;-67
2024/01/06 03:13:14;;;;;;;22.48;12.20;;;1.60;62.70;;;;;;5036420;28;20044;-68
2024/01/06 03:15:40;;;;;;;27.40;13.25;;;1.60;62.90;;;;;;5032196;28;20354;-68
2024/01/06 03:18:05;;;;;;;25.73;12.27;;;1.50;62.50;;;;;;5028790;28;20063;-67
2024/01/06 03:20:31;;;;;;;24.98;13.13;;;1.70;62.20;;;;;;5028587;28;20426;-69
2024/01/06 03:22:56;;;;;;;26.20;12.85;;;1.60;61.90;;;;;;5028167;28;20568;-69
2024/01/06 03:25:22;;;;;;;21.95;11.43;;;1.50;62.90;;;;;;5043457;28;20045;-71
2024/01/06 03:27:48;;;;;;;24.65;12.23;;;1.50;63.70;;;;;;5042538;28;20631;-69
2024/01/06 03:30:13;;;;;;;21.75;11.02;;;1.40;66.10;;;;;;5032563;28;20037;-68
2024/01/06 03:32:39;;;;;;;26.30;12.48;;;1.50;66.70;;;;;;5029354;28;20498;-68
2024/01/06 03:35:06;;;;;;;24.92;12.23;;;1.70;66.30;;;;;;5039260;28;20041;-68
2024/01/06 03:37:32;;;;;;;27.13;13.25;;;1.70;66.30;;;;;;5033126;28;20077;-68
2024/01/06 03:39:58;;;;;;;26.88;12.15;;;1.40;65.90;;;;;;5035539;28;20041;-67
2024/01/06 03:42:24;;;;;;;20.10;10.73;;;1.70;65.90;;;;;;5040182;28;20045;-68
2024/01/06 03:44:49;;;;;;;22.75;10.75;;;1.60;65.50;;;;;;5033933;28;20092;-68
2024/01/06 03:47:15;;;;;;;23.92;10.77;;;1.40;65.10;;;;;;5032637;28;20041;-68
2024/01/06 03:49:40;;;;;;;19.75;10.25;;;1.70;65.10;;;;;;5043872;28;20738;-68
2024/01/06 03:52:06;;;;;;;23.70;11.13;;;1.70;64.60;;;;;;5025728;28;20436;-68
2024/01/06 03:54:32;;;;;;;22.35;11.65;;;1.40;64.80;;;;;;5048061;28;20044;-68
2024/01/06 03:56:57;;;;;;;23.90;13.25;;;1.60;65.00;;;;;;5040992;28;20068;-67
2024/01/06 03:59:23;;;;;;;27.73;11.63;;;1.40;65.10;;;;;;5040417;28;20124;-68
2024/01/06 04:01:48;;;;;;;21.77;11.23;;;1.60;65.50;;;;;;5033697;28;20037;-66
2024/01/06 04:04:14;;;;;;;22.55;11.48;;;1.40;65.20;;;;;;5037410;28;20465;-68
2024/01/06 04:06:39;;;;;;;24.05;12.48;;;1.60;64.50;;;;;;5032897;28;20029;-66
2024/01/06 04:09:05;;;;;;;21.38;10.95;;;1.40;63.70;;;;;;5039950;28;20129;-68
2024/01/06 04:11:31;;;;;;;22.75;10.38;;;1.70;63.40;;;;;;5043416;28;20449;-68
2024/01/06 04:13:57;;;;;;;22.08;12.05;;;1.40;63.10;;;;;;5051796;28;20041;-68
2024/01/06 04:16:22;;;;;;;22.50;11.10;;;1.60;62.80;;;;;;5034666;28;20037;-68
2024/01/06 04:18:48;;;;;;;25.88;10.95;;;1.40;62.50;;;;;;5038250;28;20040;-69
2024/01/06 04:21:13;;;;;;;24.23;11.13;;;1.70;63.30;;;;;;5031595;28;20342;-67
2024/01/06 04:23:39;;;;;;;21.60;10.98;;;1.60;63.70;;;;;;5043119;28;20048;-68
2024/01/06 04:26:06;;;;;;;20.58;10.02;;;1.60;64.90;;;;;;5036543;28;20039;-67
2024/01/06 04:28:32;;;;;;;22.38;10.35;;;1.40;65.60;;;;;;5046821;28;20408;-67
2024/01/06 04:30:58;;;;;;;22.23;11.27;;;1.60;66.00;;;;;;5044359;28;20041;-66
2024/01/06 04:33:23;;;;;;;21.88;10.82;;;1.60;65.60;;;;;;5045882;28;20056;-67
2024/01/06 04:35:50;;;;;;;22.92;11.00;;;1.30;65.90;;;;;;5032170;28;20508;-68
2024/01/06 04:38:15;;;;;;;21.05;9.77;;;1.50;66.00;;;;;;5036379;28;20060;-67
2024/01/06 04:40:41;;;;;;;21.45;10.27;;;1.50;66.50;;;;;;5018023;28;20394;-68
2024/01/06 04:43:07;;;;;;;20.05;9.88;;;1.60;66.30;;;;;;5032040;28;20050;-67
2024/01/06 04:45:33;;;;;;;19.75;10.70;;;1.50;66.00;;;;;;5044604;28;20048;-66
2024/01/06 04:47:58;;;;;;;19.38;10.40;;;1.50;65.50;;;;;;5039576;28;20243;-66
2024/01/06 04:50:24;;;;;;;20.90;10.75;;;1.50;65.80;;;;;;5032631;28;20038;-68
2024/01/06 04:52:49;;;;;;;19.20;9.75;;;1.20;65.60;;;;;;5046024;28;20057;-66
2024/01/06 04:55:15;;;;;;;21.83;10.10;;;1.30;65.70;;;;;;5052816;28;20045;-67
2024/01/06 04:57:41;;;;;;;18.00;9.90;;;1.30;65.30;;;;;;5033826;28;20044;-67
2024/01/06 05:00:07;;;;;;;21.35;10.23;;;1.40;64.60;;;;;;5047363;28;20052;-67
2024/01/06 05:02:34;;;;;;;20.80;9.90;;;1.20;63.90;;;;;;5045098;28;20417;-68
2024/01/06 05:04:59;;;;;;;19.27;9.98;;;1.40;63.90;;;;;;5051656;28;20056;-67
2024/01/06 05:07:25;;;;;;;25.58;10.88;;;1.20;63.20;;;;;;5038123;28;20481;-67
2024/01/06 05:09:51;;;;;;;19.10;9.43;;;1.30;62.90;;;;;;5034531;28;20076;-67
2024/01/06 05:12:16;;;;;;;19.92;10.20;;;1.50;62.70;;;;;;5032427;28;20048;-67
2024/01/06 05:14:42;;;;;;;20.92;10.82;;;1.20;62.40;;;;;;5034653;28;20060;-68
2024/01/06 05:17:08;;;;;;;18.25;9.60;;;1.20;62.00;;;;;;5042989;28;20029;-67
2024/01/06 05:19:35;;;;;;;20.88;10.30;;;1.30;61.80;;;;;;5041399;28;20076;-67
2024/01/06 05:22:00;;;;;;;20.67;10.25;;;1.20;61.60;;;;;;5046581;28;20144;-66
2024/01/06 05:24:26;;;;;;;20.50;9.98;;;1.60;61.60;;;;;;5034383;28;20124;-67
2024/01/06 05:26:51;;;;;;;19.65;9.88;;;1.50;61.00;;;;;;5028709;28;20022;-67
2024/01/06 05:29:17;;;;;;;18.33;9.48;;;1.20;60.50;;;;;;5034940;28;20038;-67
2024/01/06 05:31:43;;;;;;;18.45;9.65;;;1.20;60.40;;;;;;5039443;28;20545;-67
2024/01/06 05:34:08;;;;;;;19.88;10.38;;;1.30;60.30;;;;;;5045534;28;20037;-67
2024/01/06 05:36:34;;;;;;;21.23;10.27;;;1.50;60.30;;;;;;5043703;28;20103;-66
2024/01/06 05:39:00;;;;;;;18.52;10.43;;;1.40;60.30;;;;;;5049312;28;20045;-66
2024/01/06 05:41:26;;;;;;;19.75;10.05;;;1.20;60.30;;;;;;5032189;28;20512;-67
2024/01/06 05:43:51;;;;;;;19.73;10.02;;;1.10;60.90;;;;;;5041346;28;20051;-67
2024/01/06 05:46:24;;;;;;;23.63;10.82;;;1.30;61.60;;;;;;5031535;28;20725;-67
2024/01/06 05:48:50;;;;;;;17.90;10.05;;;1.40;62.20;;;;;;5038643;28;20120;-69
2024/01/06 05:51:16;;;;;;;21.75;10.45;;;1.20;61.70;;;;;;5033450;28;20139;-67
2024/01/06 05:53:44;;;;;;;20.65;9.70;;;1.40;61.30;;;;;;5028245;28;20049;-66
2024/01/06 05:56:10;;;;;;;17.70;9.20;;;1.40;61.90;;;;;;5030248;28;20037;-68
2024/01/06 05:58:35;;;;;;;20.63;10.45;;;1.10;61.50;;;;;;5043773;28;20040;-68
2024/01/06 06:01:01;;;;;;;20.73;10.45;;;1.40;61.60;;;;;;5047819;28;20115;-67
2024/01/06 06:03:27;;;;;;;18.25;10.02;;;1.40;61.80;;;;;;5038536;28;20435;-66
2024/01/06 06:05:53;;;;;;;18.88;9.90;;;1.40;61.60;;;;;;5031916;28;20623;-68
2024/01/06 06:08:19;;;;;;;20.50;10.15;;;1.20;61.00;;;;;;5031412;28;20038;-67
2024/01/06 06:11:01;;;;;;;17.70;9.20;;;1.20;60.40;;;;;;5038765;28;20553;-67
2024/01/06 06:13:30;;;;;;;23.35;10.75;;;1.10;60.10;;;;;;5034650;28;20053;-67
2024/01/06 06:15:56;;;;;;;19.80;10.18;;;1.10;59.60;;;;;;5035408;28;20053;-67
2024/01/06 06:18:22;;;;;;;20.23;9.50;;;1.40;59.90;;;;;;5039339;28;20064;-67
2024/01/06 06:20:47;;;;;;;18.50;9.73;;;1.10;59.60;;;;;;5038624;28;20045;-67
2024/01/06 06:23:13;;;;;;;18.23;9.82;;;1.40;60.30;;;;;;5030993;28;20389;-67
2024/01/06 06:25:39;;;;;;;18.40;10.20;;;1.20;60.80;;;;;;5039584;28;20045;-67
2024/01/06 06:28:06;;;;;;;16.02;9.18;;;1.30;60.60;;;;;;5039195;28;20408;-68
2024/01/06 06:30:32;;;;;;;19.98;10.18;;;1.20;60.30;;;;;;5035307;28;20400;-67
2024/01/06 06:32:57;;;;;;;20.25;10.13;;;1.10;60.50;;;;;;5040655;28;20156;-67
2024/01/06 06:35:24;;;;;;;20.58;9.98;;;1.30;60.70;;;;;;5037502;28;20053;-67
2024/01/06 06:37:50;;;;;;;19.23;9.75;;;1.30;60.00;;;;;;5032462;28;20382;-68
2024/01/06 06:40:15;;;;;;;19.08;9.43;;;1.10;59.40;;;;;;5045885;28;20052;-68
2024/01/06 06:42:41;;;;;;;18.08;9.40;;;1.30;58.90;;;;;;5037594;28;20084;-68
2024/01/06 06:45:07;;;;;;;19.85;9.38;;;1.10;59.50;;;;;;5038453;28;20127;-67
2024/01/06 06:47:33;;;;;;;18.25;10.15;;;1.00;60.10;;;;;;5030707;28;20042;-68
2024/01/06 06:49:59;;;;;;;17.25;9.38;;;1.20;60.70;;;;;;5033075;28;20034;-67
2024/01/06 06:52:24;;;;;;;19.58;10.25;;;1.20;60.80;;;;;;5042862;28;20045;-66
2024/01/06 06:54:51;;;;;;;19.25;10.25;;;1.10;60.30;;;;;;5036888;28;20041;-68
2024/01/06 06:57:17;;;;;;;17.90;10.18;;;1.30;59.60;;;;;;5035804;28;20135;-67
2024/01/06 06:59:43;;;;;;;20.77;11.50;;;1.20;58.90;;;;;;5040894;28;20082;-67
2024/01/06 07:02:09;;;;;;;21.70;10.23;;;1.30;58.70;;;;;;5040796;28;20124;-71
2024/01/06 07:04:34;;;;;;;19.35;10.32;;;1.30;58.10;;;;;;5033421;28;20124;-67
2024/01/06 07:07:00;;;;;;;21.40;10.65;;;1.10;57.60;;;;;;5029269;28;20116;-69
2024/01/06 07:09:26;;;;;;;21.27;11.00;;;1.00;57.50;;;;;;5036701;28;20033;-67
2024/01/06 07:11:51;;;;;;;16.73;9.40;;;1.00;57.20;;;;;;5043504;28;20580;-67
2024/01/06 07:14:17;;;;;;;18.63;10.43;;;1.10;56.60;;;;;;5032609;28;20040;-67
2024/01/06 07:16:43;;;;;;;16.08;9.65;;;0.90;57.70;;;;;;5034984;28;20072;-67
2024/01/06 07:19:08;;;;;;;17.67;10.00;;;1.00;58.20;;;;;;5042259;28;20037;-67
2024/01/06 07:21:34;;;;;;;19.95;10.57;;;0.90;58.00;;;;;;5028969;28;20610;-67
2024/01/06 07:24:01;;;;;;;16.45;9.20;;;1.10;57.10;;;;;;5033144;28;20572;-68
2024/01/06 07:26:27;;;;;;;17.90;9.35;;;1.00;56.80;;;;;;5033202;28;20089;-67
2024/01/06 07:28:53;;;;;;;17.20;9.20;;;1.00;57.70;;;;;;5032909;28;20065;-68
2024/01/06 07:31:18;;;;;;;15.95;9.18;;;1.10;57.80;;;;;;5041240;28;20812;-67
2024/01/06 07:33:44;;;;;;;15.38;8.95;;;1.00;57.30;;;;;;5014941;28;20040;-67
2024/01/06 07:36:10;;;;;;;15.40;8.27;;;1.10;56.90;;;;;;5031216;28;20049;-70
2024/01/06 07:38:36;;;;;;;19.48;9.10;;;0.90;56.00;;;;;;5030343;28;20041;-68
2024/01/06 07:41:03;;;;;;;15.88;9.93;;;1.10;55.20;;;;;;5030591;28;20029;-69
2024/01/06 07:43:30;;;;;;;16.95;9.57;;;1.10;54.20;;;;;;5037473;28;20174;-68
2024/01/06 07:45:55;;;;;;;19.20;9.50;;;0.90;53.40;;;;;;5027673;28;20487;-68
2024/01/06 07:48:21;;;;;;;15.35;8.57;;;0.90;52.80;;;;;;5035435;28;20106;-67
2024/01/06 07:50:47;;;;;;;13.60;7.97;;;1.10;52.80;;;;;;5042099;28;20123;-66
2024/01/06 07:53:13;;;;;;;16.55;8.55;;;0.90;52.50;;;;;;5032332;28;20461;-69
2024/01/06 07:55:40;;;;;;;15.98;9.10;;;1.00;52.00;;;;;;5032849;28;20045;-69
2024/01/06 07:58:05;;;;;;;15.80;8.48;;;1.10;51.70;;;;;;5029227;28;20124;-68
2024/01/06 08:00:31;;;;;;;13.98;8.48;;;1.00;51.40;;;;;;5038956;28;20120;-68
2024/01/06 08:02:57;;;;;;;16.83;8.82;;;1.10;51.10;;;;;;5027886;28;20038;-68
2024/01/06 08:05:22;;;;;;;16.75;8.93;;;0.90;52.10;;;;;;5012000;28;20120;-70
2024/01/06 08:07:50;;;;;;;14.32;8.65;;;0.90;51.00;;;;;;5049361;28;20043;-68
2024/01/06 08:10:16;;;;;;;15.63;8.65;;;0.90;50.50;;;;;;5032097;28;20044;-68
2024/01/06 08:12:42;;;;;;;17.95;8.55;;;0.90;50.00;;;;;;5028846;28;20038;-68
2024/01/06 08:15:09;;;;;;;15.40;8.70;;;1.10;50.00;;;;;;5040825;28;20063;-68
2024/01/06 08:17:35;;;;;;;21.50;10.13;;;0.90;49.30;;;;;;5030212;28;20041;-68
2024/01/06 08:20:01;;;;;;;28.88;12.70;;;1.10;48.20;;;;;;5020678;28;20166;-68
2024/01/06 08:22:27;;;;;;;27.58;12.38;;;1.10;47.50;;;;;;5033727;28;20061;-68
2024/01/06 08:24:52;;;;;;;21.40;10.88;;;1.10;46.90;;;;;;5040606;28;20033;-67
2024/01/06 08:27:18;;;;;;;24.42;11.75;;;1.10;46.90;;;;;;5031061;28;20485;-68
2024/01/06 08:29:43;;;;;;;26.67;13.13;;;1.00;46.70;;;;;;5038093;28;20061;-68
2024/01/06 08:32:11;;;;;;;30.13;13.65;;;1.00;47.00;;;;;;5030080;28;20046;-69
2024/01/06 08:34:36;;;;;;;28.85;14.10;;;1.00;47.10;;;;;;5043640;28;20076;-68
2024/01/06 08:37:03;;;;;;;25.20;13.48;;;1.00;47.10;;;;;;5035333;28;20065;-68
2024/01/06 08:39:29;;;;;;;21.13;11.05;;;1.00;47.20;;;;;;5049396;28;20393;-68
2024/01/06 08:41:55;;;;;;;19.88;10.80;;;1.00;47.30;;;;;;5045096;28;20050;-68
2024/01/06 08:44:20;;;;;;;21.30;10.52;;;1.10;47.40;;;;;;5043226;28;20069;-67
2024/01/06 08:46:46;;;;;;;21.73;10.30;;;1.20;48.40;;;;;;5027256;28;20113;-68
2024/01/06 08:49:12;;;;;;;17.35;10.15;;;1.00;48.70;;;;;;5028748;28;20437;-69
2024/01/06 08:51:37;;;;;;;20.40;11.43;;;1.20;49.10;;;;;;5027135;28;20037;-69
2024/01/06 08:54:06;;;;;;;19.95;10.32;;;1.00;49.10;;;;;;5030765;28;20045;-68
2024/01/06 08:56:33;;;;;;;19.65;10.27;;;1.20;49.10;;;;;;5032082;28;20133;-69
2024/01/06 08:58:59;;;;;;;17.52;9.63;;;1.00;49.40;;;;;;5039256;28;20080;-68
2024/01/06 09:01:24;;;;;;;21.08;10.45;;;1.20;49.80;;;;;;5045772;28;20473;-69
2024/01/06 09:03:50;;;;;;;20.95;10.30;;;1.10;51.50;;;;;;5045008;28;20132;-67
2024/01/06 09:06:16;;;;;;;18.13;9.68;;;1.00;53.70;;;;;;5044699;28;20153;-68
2024/01/06 09:08:42;;;;;;;18.70;9.98;;;1.10;54.20;;;;;;5044793;28;20032;-69
2024/01/06 09:11:07;;;;;;;19.63;10.65;;;1.00;54.20;;;;;;5039348;28;20040;-67
2024/01/06 09:13:33;;;;;;;18.95;10.57;;;1.20;54.30;;;;;;5052152;28;20037;-68
2024/01/06 09:16:00;;;;;;;17.92;10.52;;;1.20;54.70;;;;;;5052554;28;20040;-68
2024/01/06 09:18:26;;;;;;;20.20;10.95;;;1.10;55.40;;;;;;5052051;28;20468;-68
2024/01/06 09:20:52;;;;;;;20.83;10.82;;;1.10;55.70;;;;;;5031866;28;20124;-69
2024/01/06 09:23:19;;;;;;;18.85;11.00;;;1.10;56.80;;;;;;5031789;28;20132;-68
2024/01/06 09:25:45;;;;;;;19.17;10.55;;;1.20;56.30;;;;;;5041914;28;20034;-68
2024/01/06 09:28:10;;;;;;;18.58;10.27;;;1.30;56.50;;;;;;5040576;28;20041;-68
2024/01/06 09:30:37;;;;;;;21.98;10.77;;;1.30;56.80;;;;;;5032482;28;20053;-69
2024/01/06 09:33:03;;;;;;;20.00;10.85;;;1.20;58.50;;;;;;5035544;28;20057;-69
2024/01/06 09:35:28;;;;;;;22.00;11.27;;;1.20;59.00;;;;;;5041766;28;20473;-69
2024/01/06 09:37:55;;;;;;;20.70;11.93;;;1.40;59.10;;;;;;5024408;28;20064;-69
2024/01/06 09:40:23;;;;;;;18.92;10.75;;;1.40;59.30;;;;;;5022003;28;20140;-69
2024/01/06 09:42:49;;;;;;;19.42;10.43;;;1.20;60.30;;;;;;5027495;28;20132;-69
2024/01/06 09:45:15;;;;;;;21.40;10.95;;;1.20;63.10;;;;;;5036137;28;20037;-68
2024/01/06 09:47:41;;;;;;;20.88;11.95;;;1.40;64.10;;;;;;5045647;28;20056;-66
2024/01/06 09:50:09;;;;;;;24.88;12.45;;;1.40;65.60;;;;;;5032038;28;20440;-67
2024/01/06 09:52:44;;;;;;;26.35;13.68;;;1.40;66.50;;;;;;5018613;28;20152;-68
2024/01/06 09:55:12;;;;;;;28.85;15.45;;;1.40;69.50;;;;;;5044916;28;20103;-69
2024/01/06 09:57:38;;;;;;;26.92;13.75;;;1.50;70.60;;;;;;5045893;28;20041;-68
2024/01/06 10:00:05;;;;;;;29.27;15.00;;;1.40;70.80;;;;;;5032655;28;20457;-68
2024/01/06 10:02:34;;;;;;;25.50;13.30;;;1.50;71.40;;;;;;5049722;28;20036;-67
2024/01/06 10:04:59;;;;;;;30.08;15.80;;;1.50;72.80;;;;;;5036420;28;20045;-67
2024/01/06 10:07:28;;;;;;;28.70;15.48;;;1.50;74.80;;;;;;5033021;28;20047;-67
2024/01/06 10:09:55;;;;;;;23.45;12.60;;;1.50;76.80;;;;;;5042690;28;20033;-68
2024/01/06 10:12:28;;;;;;;21.40;12.70;;;1.50;79.60;;;;;;5038419;28;20048;-69
2024/01/06 10:14:53;;;;;;;21.95;12.40;;;1.50;81.20;;;;;;5038590;28;20080;-68
2024/01/06 10:17:19;;;;;;;23.30;12.68;;;1.50;82.50;;;;;;5036164;28;20072;-67
2024/01/06 10:19:47;;;;;;;22.02;11.18;;;1.50;85.10;;;;;;5039661;28;20094;-69
2024/01/06 10:22:13;;;;;;;22.05;11.63;;;1.50;86.80;;;;;;5034322;28;20050;-68
2024/01/06 10:24:38;;;;;;;23.20;11.82;;;1.60;88.10;;;;;;5042734;28;20041;-67
2024/01/06 10:27:04;;;;;;;21.58;11.82;;;1.60;88.90;;;;;;5034144;28;20478;-68
2024/01/06 10:29:30;;;;;;;23.90;11.93;;;1.60;89.80;;;;;;5034455;28;20060;-68
2024/01/06 10:31:57;;;;;;;24.80;11.65;;;1.70;90.50;;;;;;5039813;28;20053;-69
2024/01/06 10:34:23;;;;;;;18.77;10.50;;;1.60;91.30;;;;;;5030067;28;20041;-69
2024/01/06 10:36:51;;;;;;;18.52;11.18;;;1.50;91.90;;;;;;5031944;28;20123;-69
2024/01/06 10:39:18;;;;;;;20.42;11.35;;;1.60;92.40;;;;;;5033314;28;20042;-68
2024/01/06 10:41:45;;;;;;;20.55;11.27;;;1.50;92.70;;;;;;5037514;28;20076;-69
2024/01/06 10:44:11;;;;;;;21.77;11.70;;;1.50;93.10;;;;;;5046329;28;20037;-68
2024/01/06 10:46:39;;;;;;;17.65;10.55;;;1.50;93.60;;;;;;5044307;28;20303;-68
2024/01/06 10:49:08;;;;;;;21.75;11.25;;;1.50;94.10;;;;;;5044614;28;20048;-69
2024/01/06 10:51:35;;;;;;;21.55;10.93;;;1.50;95.20;;;;;;5030171;28;20028;-68
2024/01/06 10:54:02;;;;;;;21.13;10.93;;;1.50;96.00;;;;;;5038312;28;20037;-68
2024/01/06 10:56:29;;;;;;;19.90;10.48;;;1.50;96.30;;;;;;5039454;28;20457;-67
2024/01/06 10:58:56;;;;;;;21.63;11.43;;;1.50;96.50;;;;;;5045754;28;20127;-68
2024/01/06 11:01:24;;;;;;;20.90;10.35;;;1.50;97.20;;;;;;5038788;28;20777;-68
2024/01/06 11:03:50;;;;;;;19.88;11.70;;;1.60;97.90;;;;;;5039172;28;20082;-69
2024/01/06 11:06:20;;;;;;;24.20;10.80;;;1.60;98.50;;;;;;5033327;28;20037;-69
2024/01/06 11:09:11;;;;;;;18.23;10.10;;;1.50;99.20;;;;;;5034975;28;20537;-69
2024/01/06 11:11:39;;;;;;;19.60;10.38;;;1.50;99.50;;;;;;5029828;28;20773;-68
2024/01/06 11:14:27;;;;;;;20.98;10.98;;;1.50;99.70;;;;;;5031212;28;20049;-68
2024/01/06 11:16:54;;;;;;;18.65;10.93;;;1.50;99.90;;;;;;5032861;28;20060;-67
2024/01/06 11:19:35;;;;;;;22.83;11.43;;;1.50;99.90;;;;;;5030976;28;20059;-67
2024/01/06 11:22:26;;;;;;;21.67;11.57;;;1.50;99.90;;;;;;5030217;28;20045;-68
2024/01/06 11:24:56;;;;;;;19.42;10.85;;;1.60;99.90;;;;;;5032222;28;20045;-68
2024/01/06 11:27:30;;;;;;;23.00;10.80;;;1.60;99.90;;;;;;5029897;28;20033;-68
2024/01/06 11:29:58;;;;;;;23.27;12.15;;;1.60;99.90;;;;;;5033389;28;20041;-68
2024/01/06 11:32:41;;;;;;;19.08;10.70;;;1.70;99.90;;;;;;5033515;28;20417;-69
2024/01/06 11:35:11;;;;;;;18.40;9.70;;;1.60;99.90;;;;;;5038425;28;20041;-67
2024/01/06 11:37:51;;;;;;;20.80;11.73;;;1.60;99.90;;;;;;5029368;28;20045;-68
2024/01/06 11:40:20;;;;;;;;;;;1.60;99.90;;;;;;5022904;28;20040;-69
2024/01/06 11:42:56;;;;;;;20.95;11.13;;;1.60;99.90;;;;;;5016044;28;19964;-68
2024/01/06 11:45:24;;;;;;;21.70;11.32;;;1.50;99.90;;;;;;5050667;28;20466;-69
2024/01/06 11:47:55;;;;;;;19.77;10.90;;;1.60;99.90;;;;;;5049215;28;20040;-68
2024/01/06 11:50:21;;;;;;;21.13;11.95;;;1.50;99.90;;;;;;5043676;28;20124;-68
2024/01/06 11:52:47;;;;;;;21.75;11.65;;;1.60;99.90;;;;;;5038222;28;20137;-69
2024/01/06 11:55:12;;;;;;;22.60;12.45;;;1.50;99.90;;;;;;5018659;28;20032;-69
2024/01/06 11:57:38;;;;;;;21.70;11.93;;;1.50;99.90;;;;;;5040030;28;20048;-67
2024/01/06 12:00:07;;;;;;;24.08;12.02;;;1.50;99.90;;;;;;5037368;28;20048;-69
2024/01/06 12:02:32;;;;;;;28.35;13.45;;;1.60;99.90;;;;;;5029904;28;20505;-69
2024/01/06 12:04:58;;;;;;;27.05;13.73;;;1.50;99.90;;;;;;5042071;28;20036;-68
2024/01/06 12:07:24;;;;;;;38.58;18.52;;;1.50;99.90;;;;;;5047468;28;21005;-69
2024/01/06 12:09:51;;;;;;;28.77;14.57;;;1.50;99.90;;;;;;5046845;28;20043;-68
2024/01/06 12:12:17;;;;;;;27.05;14.27;;;1.50;99.90;;;;;;5039158;28;20041;-68
2024/01/06 12:14:43;;;;;;;27.48;14.55;;;1.50;99.90;;;;;;5030593;28;20083;-69
2024/01/06 12:17:10;;;;;;;30.23;13.60;;;1.50;99.90;;;;;;5029695;28;20129;-68
2024/01/06 12:19:35;;;;;;;25.35;12.88;;;1.50;99.90;;;;;;5035429;28;20053;-69
2024/01/06 12:22:02;;;;;;;28.40;14.38;;;1.50;99.90;;;;;;5034769;28;20086;-68
2024/01/06 12:24:28;;;;;;;23.90;13.18;;;1.50;99.90;;;;;;5021069;28;20116;-68
2024/01/06 12:26:57;;;;;;;25.58;12.95;;;1.50;99.90;;;;;;5021150;28;20073;-68
2024/01/06 12:29:25;;;;;;;26.65;13.18;;;1.50;99.90;;;;;;5055080;28;20388;-68
2024/01/06 12:31:51;;;;;;;30.13;13.73;;;1.40;99.90;;;;;;5052217;28;20443;-68
2024/01/06 12:34:17;;;;;;;26.27;13.93;;;1.40;99.90;;;;;;5045701;28;20045;-68